createdAt,value
2019-06-20T00:03:25.247Z,99363.45
2019-06-20T00:08:30.369Z,99357.45
2019-06-20T00:13:35.449Z,99354.14
2019-06-20T00:18:40.521Z,99355.33
2019-06-20T00:23:45.713Z,99341.53
2019-06-20T00:28:50.737Z,99331.83
2019-06-20T00:33:55.820Z,99330.66
2019-06-20T00:39:00.892Z,99330.10
2019-06-20T00:44:07.683Z,99355.48
2019-06-20T00:49:12.882Z,99444.88
2019-06-20T00:54:18.920Z,99433.80
2019-06-20T00:59:24.049Z,99484.31
2019-06-20T01:04:30.256Z,99466.42
2019-06-20T01:09:35.335Z,99443.55
2019-06-20T01:14:41.051Z,99471.85
2019-06-20T01:19:46.145Z,99459.20
2019-06-20T01:24:51.203Z,99479.17
2019-06-20T01:29:56.591Z,99477.44
2019-06-20T01:35:01.741Z,99482.66
2019-06-20T01:40:07.397Z,99490.37
2019-06-20T01:45:12.402Z,99499.43
2019-06-20T01:50:17.658Z,99484.28
2019-06-20T01:55:23.086Z,99468.02
2019-06-20T02:00:44.390Z,99475.53
2019-06-20T02:05:49.461Z,99476.70
2019-06-20T02:10:54.526Z,99476.68
2019-06-20T02:15:59.613Z,99464.31
2019-06-20T02:21:04.975Z,99447.22
2019-06-20T02:26:10.145Z,99431.12
2019-06-20T02:31:15.189Z,99416.80
2019-06-20T02:36:20.297Z,99405.79
2019-06-20T02:41:25.332Z,99383.77
2019-06-20T02:46:30.726Z,99379.49
2019-06-20T02:51:35.869Z,99394.77
2019-06-20T02:56:40.922Z,99411.77
2019-06-20T03:01:46.006Z,99413.87
2019-06-20T03:06:51.110Z,99429.22
2019-06-20T03:11:56.196Z,99446.83
2019-06-20T03:17:01.350Z,99470.75
2019-06-20T03:22:06.860Z,99484.08
2019-06-20T03:27:11.903Z,99484.22
2019-06-20T03:32:16.942Z,99482.66
2019-06-20T03:37:22.034Z,99480.13
2019-06-20T03:42:27.119Z,99475.75
2019-06-20T03:47:32.643Z,99460.27
2019-06-20T03:52:38.063Z,99463.19
2019-06-20T03:57:43.199Z,99459.72
2019-06-20T04:02:48.287Z,99505.97
2019-06-20T04:07:53.339Z,99516.94
2019-06-20T04:12:58.442Z,99518.38
2019-06-20T04:18:03.695Z,99670.62
2019-06-20T04:23:08.923Z,99633.28
2019-06-20T04:28:14.007Z,99683.95
2019-06-20T04:33:19.181Z,99672.68
2019-06-20T04:38:25.181Z,99695.62
2019-06-20T04:43:30.346Z,99685.62
2019-06-20T04:48:36.007Z,99686.05
2019-06-20T04:53:41.119Z,99661.59
2019-06-20T04:58:46.567Z,99661.76
2019-06-20T05:03:52.207Z,99656.40
2019-06-20T05:08:57.543Z,99648.18
2019-06-20T05:14:04.730Z,99661.20
2019-06-20T05:19:10.345Z,99668.71
2019-06-20T05:24:16.025Z,99660.09
2019-06-20T05:29:22.697Z,99654.89
2019-06-20T05:34:27.794Z,99646.48
2019-06-20T05:39:32.996Z,99676.11
2019-06-20T05:44:38.047Z,99662.59
2019-06-20T05:49:43.881Z,99700.31
2019-06-20T05:54:49.639Z,99708.02
2019-06-20T05:59:54.699Z,99694.75
2019-06-20T06:04:59.828Z,99662.17
2019-06-20T06:10:05.979Z,99664.20
2019-06-20T06:15:12.227Z,99651.00
2019-06-20T06:20:17.643Z,99649.92
2019-06-20T06:25:22.802Z,99645.11
2019-06-20T06:30:29.101Z,99625.55
2019-06-20T06:35:34.256Z,99631.55
2019-06-20T06:40:39.558Z,99627.39
2019-06-20T06:45:44.636Z,99635.19
2019-06-20T06:50:49.788Z,99631.69
2019-06-20T06:55:54.995Z,99644.10
2019-06-20T07:01:01.173Z,99651.20
2019-06-20T07:06:07.211Z,99657.95
2019-06-20T07:11:12.329Z,99653.43
2019-06-20T07:16:17.294Z,99639.47
2019-06-20T07:21:22.613Z,99630.91
2019-06-20T07:26:27.766Z,99635.44
2019-06-20T07:31:32.960Z,99635.94
2019-06-20T07:36:38.395Z,99643.07
2019-06-20T07:41:43.538Z,99648.95
2019-06-20T07:46:49.024Z,99641.45
2019-06-20T07:51:54.086Z,99643.46
2019-06-20T07:56:59.177Z,99643.16
2019-06-20T08:02:04.274Z,99650.78
2019-06-20T08:07:09.444Z,99652.11
2019-06-20T08:12:14.670Z,99644.27
2019-06-20T08:17:34.334Z,99661.66
2019-06-20T08:22:26.611Z,99665.81
2019-06-20T08:27:57.831Z,99663.52
2019-06-20T08:33:09.921Z,99659.52
2019-06-20T08:38:11.120Z,99664.86
2019-06-20T08:43:16.189Z,99654.81
2019-06-20T08:48:21.329Z,99656.79
2019-06-20T08:53:26.482Z,99653.44
2019-06-20T08:58:31.578Z,99655.98
2019-06-20T09:03:36.683Z,99653.83
2019-06-20T09:08:42.869Z,99660.47
2019-06-20T09:13:49.043Z,99654.09
2019-06-20T09:18:55.332Z,99658.84
2019-06-20T09:24:01.878Z,99672.27
2019-06-20T09:29:07.022Z,99666.87
2019-06-20T09:34:12.083Z,99665.51
2019-06-20T09:39:17.308Z,99663.18
2019-06-20T09:44:22.598Z,99669.82
2019-06-20T09:49:28.189Z,99677.61
2019-06-20T09:54:33.364Z,99683.25
2019-06-20T09:59:39.616Z,99682.60
2019-06-20T10:04:46.083Z,99688.00
2019-06-20T10:09:52.072Z,99691.55
2019-06-20T10:14:57.384Z,99692.96
2019-06-20T10:20:02.563Z,99692.98
2019-06-20T10:25:07.767Z,99695.28
2019-06-20T10:30:14.599Z,99697.05
2019-06-20T10:35:20.401Z,99704.61
2019-06-20T10:40:25.683Z,99700.51
2019-06-20T10:45:30.797Z,99695.78
2019-06-20T10:50:35.920Z,99691.69
2019-06-20T10:55:41.988Z,99694.87
2019-06-20T11:00:48.348Z,99707.80
2019-06-20T11:05:53.466Z,99702.13
2019-06-20T11:10:58.907Z,99705.03
2019-06-20T11:16:04.205Z,99708.91
2019-06-20T11:21:10.880Z,99710.54
2019-06-20T11:26:16.475Z,99702.94
2019-06-20T11:31:21.913Z,99709.02
2019-06-20T11:36:27.003Z,99706.30
2019-06-20T11:41:32.326Z,99712.67
2019-06-20T11:46:38.547Z,99707.83
2019-06-20T11:51:43.865Z,99698.01
2019-06-20T11:56:48.975Z,99692.52
2019-06-20T12:01:55.257Z,99699.84
2019-06-20T12:07:01.227Z,99697.13
2019-06-20T12:12:06.359Z,99691.46
2019-06-20T12:17:11.579Z,99692.50
2019-06-20T12:22:16.737Z,99684.35
2019-06-20T12:27:21.945Z,99675.38
2019-06-20T12:32:27.169Z,99675.16
2019-06-20T12:37:32.920Z,99665.66
2019-06-20T12:42:39.860Z,99670.01
2019-06-20T12:47:46.091Z,99662.22
2019-06-20T12:52:52.045Z,99666.81
2019-06-20T12:57:57.229Z,99660.69
2019-06-20T13:03:02.742Z,99661.54
2019-06-20T13:08:07.810Z,99654.20
2019-06-20T13:13:12.987Z,99664.55
2019-06-20T13:18:18.109Z,99670.63
2019-06-20T13:23:23.286Z,99663.33
2019-06-20T13:28:28.736Z,99665.05
2019-06-20T13:33:33.844Z,99661.36
2019-06-20T13:38:39.942Z,99671.02
2019-06-20T13:43:45.776Z,99656.23
2019-06-20T13:48:50.896Z,99651.70
2019-06-20T13:53:56.255Z,99656.36
2019-06-20T13:59:01.347Z,99662.52
2019-06-20T14:04:06.940Z,99654.07
2019-06-20T14:09:12.099Z,99646.10
2019-06-20T14:14:18.739Z,99651.78
2019-06-20T14:19:23.840Z,99652.20
2019-06-20T14:24:29.006Z,99650.86
2019-06-20T14:29:34.602Z,99647.76
2019-06-20T14:34:39.853Z,99644.26
2019-06-20T14:39:45.370Z,99645.11
2019-06-20T14:44:52.447Z,99648.47
2019-06-20T14:49:57.744Z,99642.03
2019-06-20T14:55:02.911Z,99633.64
2019-06-20T15:00:09.028Z,99635.77
2019-06-20T15:05:15.740Z,99628.79
2019-06-20T15:10:26.091Z,99623.11
2019-06-20T15:15:31.738Z,99630.61
2019-06-20T15:20:36.837Z,99624.05
2019-06-20T15:25:42.370Z,99619.23
2019-06-20T15:30:48.864Z,99616.60
2019-06-20T15:35:56.963Z,99602.80
2019-06-20T15:41:02.211Z,99603.66
2019-06-20T15:46:08.073Z,99608.09
2019-06-20T15:51:13.357Z,99602.29
2019-06-20T15:56:18.614Z,99606.00
2019-06-20T16:01:23.823Z,99598.16
2019-06-20T16:06:28.969Z,99607.91
2019-06-20T16:11:34.085Z,99608.51
2019-06-20T16:16:39.321Z,99618.61
2019-06-20T16:21:45.556Z,99624.53
2019-06-20T16:26:50.813Z,99631.40
2019-06-20T16:37:08.978Z,99634.92
2019-06-20T16:42:01.744Z,99640.11
2019-06-20T16:47:07.654Z,99647.52
2019-06-20T16:52:12.740Z,99651.83
2019-06-20T16:57:17.975Z,99658.27
2019-06-20T17:02:23.053Z,99656.94
2019-06-20T17:07:28.203Z,99654.41
2019-06-20T17:12:33.361Z,99646.02
2019-06-20T17:17:38.475Z,99658.44
2019-06-20T17:22:44.649Z,99664.68
2019-06-20T17:27:49.791Z,99674.05
2019-06-20T17:32:54.907Z,99694.98
2019-06-20T17:38:00.019Z,99688.18
2019-06-20T17:43:05.185Z,99691.84
2019-06-20T17:48:10.290Z,99684.17
2019-06-20T17:53:15.368Z,99678.50
2019-06-20T17:58:20.474Z,99668.98
2019-06-20T18:03:25.683Z,99672.47
2019-06-20T18:08:30.769Z,99687.63
2019-06-20T18:13:35.840Z,99688.83
2019-06-20T18:18:40.942Z,99685.97
2019-06-20T18:23:46.074Z,99696.87
2019-06-20T18:28:51.491Z,99701.18
2019-06-20T18:33:56.629Z,99702.02
2019-06-20T18:39:01.768Z,99710.81
2019-06-20T18:44:09.003Z,99716.27
2019-06-20T18:49:14.107Z,99729.89
2019-06-20T18:54:20.064Z,99737.92
2019-06-20T18:59:25.741Z,99738.92
2019-06-20T19:04:45.371Z,99740.86
2019-06-20T19:09:38.006Z,99748.64
2019-06-20T19:14:43.140Z,99747.88
2019-06-20T19:19:48.470Z,99756.28
2019-06-20T19:24:53.631Z,99763.88
2019-06-20T19:29:59.101Z,99767.00
2019-06-20T19:35:04.499Z,99781.18
2019-06-20T19:40:10.238Z,99782.73
2019-06-20T19:45:15.688Z,99777.31
2019-06-20T19:50:21.882Z,99793.25
2019-06-20T19:55:27.376Z,99798.48
2019-06-20T20:00:32.835Z,99804.29
2019-06-20T20:05:37.906Z,99809.13
2019-06-20T20:10:47.336Z,99811.85
2019-06-20T20:15:52.449Z,99818.25
2019-06-20T20:20:57.629Z,99822.92
2019-06-20T20:26:02.820Z,99825.23
2019-06-20T20:31:07.913Z,99828.55
2019-06-20T20:36:24.374Z,99827.94
2019-06-20T20:41:19.808Z,99830.92
2019-06-20T20:46:24.933Z,99843.38
2019-06-20T20:51:30.167Z,99844.23
2019-06-20T20:56:35.644Z,99868.67
2019-06-20T21:01:40.736Z,99880.37
2019-06-20T21:06:45.796Z,99880.62
2019-06-20T21:11:51.033Z,99887.42
2019-06-20T21:16:56.421Z,99879.25
2019-06-20T21:22:01.474Z,99886.72
2019-06-20T21:27:06.588Z,99886.72
2019-06-20T21:32:11.778Z,99884.64
2019-06-20T21:37:17.209Z,99883.67
2019-06-20T21:42:22.363Z,99891.70
2019-06-20T21:47:27.584Z,99891.82
2019-06-20T21:52:33.129Z,99883.09
2019-06-20T21:57:39.828Z,99894.65
2019-06-20T22:02:44.994Z,99900.39
2019-06-20T22:07:50.278Z,99926.88
2019-06-20T22:12:55.407Z,99939.67
2019-06-20T22:18:00.446Z,99931.86
2019-06-20T22:23:06.218Z,99945.56
2019-06-20T22:28:11.324Z,99944.70
2019-06-20T22:33:16.426Z,99942.48
2019-06-20T22:38:21.471Z,99936.14
2019-06-20T22:43:26.588Z,99934.33
2019-06-20T22:48:31.739Z,99945.92
2019-06-20T22:53:36.896Z,99959.00
2019-06-20T22:58:42.000Z,99956.02
2019-06-20T23:03:47.221Z,99954.48
2019-06-20T23:08:52.262Z,99956.54
2019-06-20T23:13:57.415Z,99951.77
2019-06-20T23:19:02.491Z,99950.76
2019-06-20T23:24:07.700Z,99955.13
2019-06-20T23:29:25.137Z,99954.44
2019-06-20T23:34:30.238Z,99965.16
2019-06-20T23:39:35.355Z,99967.49
2019-06-20T23:44:40.462Z,99965.45
2019-06-20T23:49:45.511Z,99965.94
2019-06-20T23:54:50.547Z,99969.23
2019-06-20T23:59:55.648Z,99984.84
